KCNM/CNM METAR and TAF weather

Enter ICAO airport designator
Station Type Date Time Source
KCNM METAR 2018/01/21 11:53 UTC NOAA

KCNM 211153Z AUTO 25010KT 10SM CLR 12/01 A2982 RMK AO2 SLP061 T01170006 10150 20017 53015


Station Type Date Time Source
KCNM Decoded METAR 2018/01/21 11:53 UTC NOAA

CARLSBAD CAVERN CITY, NM, United States (KCNM) 32-20N 104-16W 985M
Jan 21, 2018 - 06:53 AM EST / 2018.01.21 1153 UTC
Wind: from the WSW (250 degrees) at 12 MPH (10 KT):0
Visibility: 10 mile(s):0
Sky conditions: clear
Temperature: 53.1 F (11.7 C)
Dew Point: 33.1 F (0.6 C)
Relative Humidity: 46%
Pressure (altimeter): 29.82 in. Hg (1009 hPa)
Pressure tendency: 0.04 inches (1.5 hPa) higher than three hours ago
ob: KCNM 211153Z AUTO 25010KT 10SM CLR 12/01 A2982 RMK AO2 SLP061 T01170006 10150 20017 53015
cycle: 12

Station Type Date Time Source
KCNM TAF 2018/01/21 12:22 UTC NOAA

TAF KCNM 211120Z 2112/2212 14005KT P6SM SCT200
FM211600 25020G30KT P6SM SCT200
FM211900 26035G50KT 3SM BLDU SKC
FM220100 28014G20KT P6SM SKC


Example: see airport list